sensor_id;sensor_type;location;lat;lon;timestamp;P1;durP1;ratioP1;P2;durP2;ratioP2
27025;SDS011;14565;48.626;8.978;2024-02-28T00:02:07;35.08;;;19.15;;
27025;SDS011;14565;48.626;8.978;2024-02-28T00:04:33;33.45;;;19.20;;
27025;SDS011;14565;48.626;8.978;2024-02-28T00:06:59;34.38;;;18.45;;
27025;SDS011;14565;48.626;8.978;2024-02-28T00:09:25;31.38;;;18.27;;
27025;SDS011;14565;48.626;8.978;2024-02-28T00:11:50;32.38;;;18.92;;
27025;SDS011;14565;48.626;8.978;2024-02-28T00:14:16;32.08;;;18.13;;
27025;SDS011;14565;48.626;8.978;2024-02-28T00:16:42;30.92;;;19.05;;
27025;SDS011;14565;48.626;8.978;2024-02-28T00:19:09;35.63;;;19.00;;
27025;SDS011;14565;48.626;8.978;2024-02-28T00:21:38;34.90;;;19.48;;
27025;SDS011;14565;48.626;8.978;2024-02-28T00:24:07;36.85;;;19.73;;
27025;SDS011;14565;48.626;8.978;2024-02-28T00:26:34;36.67;;;18.75;;
27025;SDS011;14565;48.626;8.978;2024-02-28T00:28:59;41.28;;;20.70;;
27025;SDS011;14565;48.626;8.978;2024-02-28T00:31:25;30.15;;;19.50;;
27025;SDS011;14565;48.626;8.978;2024-02-28T00:33:51;36.42;;;20.05;;
27025;SDS011;14565;48.626;8.978;2024-02-28T00:36:16;33.00;;;19.52;;
27025;SDS011;14565;48.626;8.978;2024-02-28T00:38:42;33.00;;;19.67;;
27025;SDS011;14565;48.626;8.978;2024-02-28T00:41:08;37.03;;;21.05;;
27025;SDS011;14565;48.626;8.978;2024-02-28T00:43:34;38.40;;;20.20;;
27025;SDS011;14565;48.626;8.978;2024-02-28T00:46:00;40.70;;;20.27;;
27025;SDS011;14565;48.626;8.978;2024-02-28T00:48:25;39.08;;;21.60;;
27025;SDS011;14565;48.626;8.978;2024-02-28T00:50:51;34.30;;;20.13;;
27025;SDS011;14565;48.626;8.978;2024-02-28T00:53:20;37.10;;;21.73;;
27025;SDS011;14565;48.626;8.978;2024-02-28T00:55:45;37.20;;;20.83;;
27025;SDS011;14565;48.626;8.978;2024-02-28T00:58:11;36.03;;;21.33;;
27025;SDS011;14565;48.626;8.978;2024-02-28T01:00:37;37.42;;;21.17;;
27025;SDS011;14565;48.626;8.978;2024-02-28T01:03:02;36.53;;;19.42;;
27025;SDS011;14565;48.626;8.978;2024-02-28T01:05:29;39.72;;;20.75;;
27025;SDS011;14565;48.626;8.978;2024-02-28T01:07:55;36.88;;;20.92;;
27025;SDS011;14565;48.626;8.978;2024-02-28T01:10:20;38.10;;;20.60;;
27025;SDS011;14565;48.626;8.978;2024-02-28T01:12:46;39.58;;;21.13;;
27025;SDS011;14565;48.626;8.978;2024-02-28T01:15:12;40.97;;;22.27;;
27025;SDS011;14565;48.626;8.978;2024-02-28T01:17:38;38.72;;;20.80;;
27025;SDS011;14565;48.626;8.978;2024-02-28T01:20:04;36.97;;;21.02;;
27025;SDS011;14565;48.626;8.978;2024-02-28T01:22:34;36.38;;;20.85;;
27025;SDS011;14565;48.626;8.978;2024-02-28T01:25:00;39.17;;;21.83;;
27025;SDS011;14565;48.626;8.978;2024-02-28T01:27:27;42.95;;;21.65;;
27025;SDS011;14565;48.626;8.978;2024-02-28T01:29:53;35.17;;;20.90;;
27025;SDS011;14565;48.626;8.978;2024-02-28T01:32:19;38.38;;;21.63;;
27025;SDS011;14565;48.626;8.978;2024-02-28T01:34:45;38.05;;;20.92;;
27025;SDS011;14565;48.626;8.978;2024-02-28T01:37:11;38.47;;;21.17;;
27025;SDS011;14565;48.626;8.978;2024-02-28T01:39:36;38.20;;;21.05;;
27025;SDS011;14565;48.626;8.978;2024-02-28T01:42:02;35.15;;;20.90;;
27025;SDS011;14565;48.626;8.978;2024-02-28T01:44:28;37.65;;;20.52;;
27025;SDS011;14565;48.626;8.978;2024-02-28T01:46:54;38.03;;;21.38;;
27025;SDS011;14565;48.626;8.978;2024-02-28T01:49:21;44.33;;;21.70;;
27025;SDS011;14565;48.626;8.978;2024-02-28T01:51:48;35.03;;;21.17;;
27025;SDS011;14565;48.626;8.978;2024-02-28T01:54:15;42.90;;;22.08;;
27025;SDS011;14565;48.626;8.978;2024-02-28T01:56:43;40.27;;;21.33;;
27025;SDS011;14565;48.626;8.978;2024-02-28T01:59:09;38.85;;;22.02;;
27025;SDS011;14565;48.626;8.978;2024-02-28T02:01:36;39.17;;;22.50;;
27025;SDS011;14565;48.626;8.978;2024-02-28T02:04:02;37.70;;;21.23;;
27025;SDS011;14565;48.626;8.978;2024-02-28T02:06:28;40.35;;;21.70;;
27025;SDS011;14565;48.626;8.978;2024-02-28T02:08:55;42.42;;;21.88;;
27025;SDS011;14565;48.626;8.978;2024-02-28T02:11:21;38.67;;;21.17;;
27025;SDS011;14565;48.626;8.978;2024-02-28T02:13:50;39.08;;;21.35;;
27025;SDS011;14565;48.626;8.978;2024-02-28T02:16:18;41.25;;;22.98;;
27025;SDS011;14565;48.626;8.978;2024-02-28T02:18:46;35.80;;;20.80;;
27025;SDS011;14565;48.626;8.978;2024-02-28T02:21:13;35.95;;;20.52;;
27025;SDS011;14565;48.626;8.978;2024-02-28T02:23:42;43.13;;;20.88;;
27025;SDS011;14565;48.626;8.978;2024-02-28T02:26:08;39.35;;;21.38;;
27025;SDS011;14565;48.626;8.978;2024-02-28T02:28:34;41.03;;;22.08;;
27025;SDS011;14565;48.626;8.978;2024-02-28T02:30:59;38.80;;;21.55;;
27025;SDS011;14565;48.626;8.978;2024-02-28T02:33:25;37.45;;;21.27;;
27025;SDS011;14565;48.626;8.978;2024-02-28T02:35:51;34.88;;;20.65;;
27025;SDS011;14565;48.626;8.978;2024-02-28T02:38:18;38.45;;;21.25;;
27025;SDS011;14565;48.626;8.978;2024-02-28T02:40:44;37.80;;;20.27;;
27025;SDS011;14565;48.626;8.978;2024-02-28T02:43:13;37.92;;;20.90;;
27025;SDS011;14565;48.626;8.978;2024-02-28T02:45:39;37.58;;;21.08;;
27025;SDS011;14565;48.626;8.978;2024-02-28T02:48:05;38.17;;;20.98;;
27025;SDS011;14565;48.626;8.978;2024-02-28T02:50:30;37.10;;;20.10;;
27025;SDS011;14565;48.626;8.978;2024-02-28T02:52:56;37.95;;;20.80;;
27025;SDS011;14565;48.626;8.978;2024-02-28T02:55:22;37.60;;;19.85;;
27025;SDS011;14565;48.626;8.978;2024-02-28T02:57:47;38.90;;;20.80;;
27025;SDS011;14565;48.626;8.978;2024-02-28T03:00:13;37.65;;;20.67;;
27025;SDS011;14565;48.626;8.978;2024-02-28T03:02:39;36.47;;;20.75;;
27025;SDS011;14565;48.626;8.978;2024-02-28T03:05:05;40.63;;;21.73;;
27025;SDS011;14565;48.626;8.978;2024-02-28T03:07:31;38.75;;;21.40;;
27025;SDS011;14565;48.626;8.978;2024-02-28T03:09:57;37.90;;;21.05;;
27025;SDS011;14565;48.626;8.978;2024-02-28T03:12:23;37.53;;;21.17;;
27025;SDS011;14565;48.626;8.978;2024-02-28T03:14:49;34.42;;;20.05;;
27025;SDS011;14565;48.626;8.978;2024-02-28T03:17:14;36.05;;;20.80;;
27025;SDS011;14565;48.626;8.978;2024-02-28T03:19:42;39.28;;;21.50;;
27025;SDS011;14565;48.626;8.978;2024-02-28T03:22:08;36.03;;;20.30;;
27025;SDS011;14565;48.626;8.978;2024-02-28T03:24:34;39.65;;;21.25;;
27025;SDS011;14565;48.626;8.978;2024-02-28T03:27:00;40.30;;;21.67;;
27025;SDS011;14565;48.626;8.978;2024-02-28T03:29:29;40.67;;;21.50;;
27025;SDS011;14565;48.626;8.978;2024-02-28T03:31:55;40.60;;;21.60;;
27025;SDS011;14565;48.626;8.978;2024-02-28T03:34:21;41.53;;;22.25;;
27025;SDS011;14565;48.626;8.978;2024-02-28T03:36:47;38.03;;;20.40;;
27025;SDS011;14565;48.626;8.978;2024-02-28T03:39:12;37.53;;;20.05;;
27025;SDS011;14565;48.626;8.978;2024-02-28T03:41:38;35.13;;;20.50;;
27025;SDS011;14565;48.626;8.978;2024-02-28T03:44:04;34.40;;;19.95;;
27025;SDS011;14565;48.626;8.978;2024-02-28T03:46:30;37.60;;;20.38;;
27025;SDS011;14565;48.626;8.978;2024-02-28T03:48:55;39.85;;;20.08;;
27025;SDS011;14565;48.626;8.978;2024-02-28T03:51:21;41.35;;;20.75;;
27025;SDS011;14565;48.626;8.978;2024-02-28T03:53:47;38.88;;;20.35;;
27025;SDS011;14565;48.626;8.978;2024-02-28T03:56:13;43.25;;;21.20;;
27025;SDS011;14565;48.626;8.978;2024-02-28T03:58:46;38.58;;;20.92;;
27025;SDS011;14565;48.626;8.978;2024-02-28T04:01:11;38.67;;;20.65;;
27025;SDS011;14565;48.626;8.978;2024-02-28T04:03:38;35.60;;;19.95;;
27025;SDS011;14565;48.626;8.978;2024-02-28T04:06:04;40.53;;;21.40;;
27025;SDS011;14565;48.626;8.978;2024-02-28T04:08:30;41.42;;;21.02;;
27025;SDS011;14565;48.626;8.978;2024-02-28T04:10:55;39.38;;;20.25;;
27025;SDS011;14565;48.626;8.978;2024-02-28T04:13:21;36.47;;;20.52;;
27025;SDS011;14565;48.626;8.978;2024-02-28T04:15:47;37.05;;;21.02;;
27025;SDS011;14565;48.626;8.978;2024-02-28T04:18:13;36.85;;;19.67;;
27025;SDS011;14565;48.626;8.978;2024-02-28T04:20:38;38.50;;;20.05;;
27025;SDS011;14565;48.626;8.978;2024-02-28T04:23:04;37.75;;;20.48;;
27025;SDS011;14565;48.626;8.978;2024-02-28T04:25:30;37.13;;;20.55;;
27025;SDS011;14565;48.626;8.978;2024-02-28T04:27:55;33.90;;;20.23;;
27025;SDS011;14565;48.626;8.978;2024-02-28T04:30:24;38.33;;;20.80;;
27025;SDS011;14565;48.626;8.978;2024-02-28T04:32:50;40.42;;;20.95;;
27025;SDS011;14565;48.626;8.978;2024-02-28T04:35:15;37.10;;;20.60;;
27025;SDS011;14565;48.626;8.978;2024-02-28T04:37:43;43.10;;;21.52;;
27025;SDS011;14565;48.626;8.978;2024-02-28T04:40:10;42.78;;;23.08;;
27025;SDS011;14565;48.626;8.978;2024-02-28T04:42:36;38.97;;;21.15;;
27025;SDS011;14565;48.626;8.978;2024-02-28T04:45:02;35.72;;;20.73;;
27025;SDS011;14565;48.626;8.978;2024-02-28T04:47:29;38.15;;;21.95;;
27025;SDS011;14565;48.626;8.978;2024-02-28T04:49:55;41.28;;;21.95;;
27025;SDS011;14565;48.626;8.978;2024-02-28T04:52:21;40.88;;;22.20;;
27025;SDS011;14565;48.626;8.978;2024-02-28T04:54:47;40.10;;;23.20;;
27025;SDS011;14565;48.626;8.978;2024-02-28T04:57:13;40.40;;;22.33;;
27025;SDS011;14565;48.626;8.978;2024-02-28T04:59:39;44.47;;;23.55;;
27025;SDS011;14565;48.626;8.978;2024-02-28T05:02:06;38.92;;;22.20;;
27025;SDS011;14565;48.626;8.978;2024-02-28T05:04:32;49.03;;;24.58;;
27025;SDS011;14565;48.626;8.978;2024-02-28T05:06:58;45.40;;;24.20;;
27025;SDS011;14565;48.626;8.978;2024-02-28T05:09:23;43.63;;;23.45;;
27025;SDS011;14565;48.626;8.978;2024-02-28T05:11:49;40.30;;;22.13;;
27025;SDS011;14565;48.626;8.978;2024-02-28T05:14:14;41.10;;;24.00;;
27025;SDS011;14565;48.626;8.978;2024-02-28T05:16:40;43.90;;;24.13;;
27025;SDS011;14565;48.626;8.978;2024-02-28T05:19:06;43.00;;;23.80;;
27025;SDS011;14565;48.626;8.978;2024-02-28T05:21:31;43.20;;;24.67;;
27025;SDS011;14565;48.626;8.978;2024-02-28T05:23:57;40.90;;;24.02;;
27025;SDS011;14565;48.626;8.978;2024-02-28T05:26:23;41.38;;;23.15;;
27025;SDS011;14565;48.626;8.978;2024-02-28T05:28:50;42.92;;;24.65;;
27025;SDS011;14565;48.626;8.978;2024-02-28T05:31:22;43.03;;;23.00;;
27025;SDS011;14565;48.626;8.978;2024-02-28T05:33:53;49.28;;;25.45;;
27025;SDS011;14565;48.626;8.978;2024-02-28T05:36:22;44.67;;;24.63;;
27025;SDS011;14565;48.626;8.978;2024-02-28T05:38:49;46.17;;;24.70;;
27025;SDS011;14565;48.626;8.978;2024-02-28T05:41:18;45.63;;;23.08;;
27025;SDS011;14565;48.626;8.978;2024-02-28T05:43:45;47.15;;;25.40;;
27025;SDS011;14565;48.626;8.978;2024-02-28T05:46:12;43.20;;;24.85;;
27025;SDS011;14565;48.626;8.978;2024-02-28T05:48:37;45.10;;;23.85;;
27025;SDS011;14565;48.626;8.978;2024-02-28T05:51:05;44.17;;;23.75;;
27025;SDS011;14565;48.626;8.978;2024-02-28T05:53:31;41.58;;;22.58;;
27025;SDS011;14565;48.626;8.978;2024-02-28T05:56:03;44.35;;;24.15;;
27025;SDS011;14565;48.626;8.978;2024-02-28T05:58:29;41.40;;;23.67;;
27025;SDS011;14565;48.626;8.978;2024-02-28T06:00:55;40.78;;;22.55;;
27025;SDS011;14565;48.626;8.978;2024-02-28T06:03:21;40.97;;;22.90;;
27025;SDS011;14565;48.626;8.978;2024-02-28T06:05:47;38.88;;;22.63;;
27025;SDS011;14565;48.626;8.978;2024-02-28T06:08:13;39.95;;;22.52;;
27025;SDS011;14565;48.626;8.978;2024-02-28T06:10:39;41.17;;;23.05;;
27025;SDS011;14565;48.626;8.978;2024-02-28T06:13:07;37.38;;;21.80;;
27025;SDS011;14565;48.626;8.978;2024-02-28T06:15:33;38.28;;;22.15;;
27025;SDS011;14565;48.626;8.978;2024-02-28T06:17:59;39.42;;;21.92;;
27025;SDS011;14565;48.626;8.978;2024-02-28T06:20:25;38.67;;;21.50;;
27025;SDS011;14565;48.626;8.978;2024-02-28T06:22:53;38.95;;;21.77;;
27025;SDS011;14565;48.626;8.978;2024-02-28T06:25:19;40.67;;;21.92;;
27025;SDS011;14565;48.626;8.978;2024-02-28T06:27:47;44.08;;;22.08;;
27025;SDS011;14565;48.626;8.978;2024-02-28T06:30:13;36.42;;;19.98;;
27025;SDS011;14565;48.626;8.978;2024-02-28T06:32:39;34.22;;;20.50;;
27025;SDS011;14565;48.626;8.978;2024-02-28T06:35:06;33.67;;;20.25;;
27025;SDS011;14565;48.626;8.978;2024-02-28T06:37:32;36.30;;;20.13;;
27025;SDS011;14565;48.626;8.978;2024-02-28T06:39:58;35.97;;;20.02;;
27025;SDS011;14565;48.626;8.978;2024-02-28T06:42:24;32.30;;;19.42;;
27025;SDS011;14565;48.626;8.978;2024-02-28T06:44:50;39.25;;;20.65;;
27025;SDS011;14565;48.626;8.978;2024-02-28T06:47:16;35.67;;;19.95;;
27025;SDS011;14565;48.626;8.978;2024-02-28T06:49:43;39.77;;;21.17;;
27025;SDS011;14565;48.626;8.978;2024-02-28T06:52:09;37.03;;;21.02;;
27025;SDS011;14565;48.626;8.978;2024-02-28T06:54:34;36.33;;;21.38;;
27025;SDS011;14565;48.626;8.978;2024-02-28T06:57:00;30.65;;;18.05;;
27025;SDS011;14565;48.626;8.978;2024-02-28T06:59:27;32.33;;;19.33;;
27025;SDS011;14565;48.626;8.978;2024-02-28T07:01:53;32.45;;;18.33;;
27025;SDS011;14565;48.626;8.978;2024-02-28T07:04:18;36.33;;;19.60;;
27025;SDS011;14565;48.626;8.978;2024-02-28T07:06:44;35.67;;;20.85;;
27025;SDS011;14565;48.626;8.978;2024-02-28T07:09:10;39.53;;;21.02;;
27025;SDS011;14565;48.626;8.978;2024-02-28T07:11:37;35.38;;;18.85;;
27025;SDS011;14565;48.626;8.978;2024-02-28T07:14:03;33.28;;;19.00;;
27025;SDS011;14565;48.626;8.978;2024-02-28T07:16:30;29.42;;;17.60;;
27025;SDS011;14565;48.626;8.978;2024-02-28T07:18:58;26.77;;;15.68;;
27025;SDS011;14565;48.626;8.978;2024-02-28T07:21:25;27.92;;;17.42;;
27025;SDS011;14565;48.626;8.978;2024-02-28T07:23:50;29.83;;;17.05;;
27025;SDS011;14565;48.626;8.978;2024-02-28T07:26:16;33.58;;;17.73;;
27025;SDS011;14565;48.626;8.978;2024-02-28T07:28:42;29.17;;;16.35;;
27025;SDS011;14565;48.626;8.978;2024-02-28T07:31:18;35.80;;;17.85;;
27025;SDS011;14565;48.626;8.978;2024-02-28T07:33:44;29.40;;;16.95;;
27025;SDS011;14565;48.626;8.978;2024-02-28T07:36:11;28.38;;;17.85;;
27025;SDS011;14565;48.626;8.978;2024-02-28T07:38:37;30.55;;;18.13;;
27025;SDS011;14565;48.626;8.978;2024-02-28T07:41:02;33.03;;;21.48;;
27025;SDS011;14565;48.626;8.978;2024-02-28T07:43:28;31.58;;;18.02;;
27025;SDS011;14565;48.626;8.978;2024-02-28T07:45:58;26.10;;;14.82;;
27025;SDS011;14565;48.626;8.978;2024-02-28T07:48:24;26.35;;;15.60;;
27025;SDS011;14565;48.626;8.978;2024-02-28T07:50:49;24.60;;;15.15;;
27025;SDS011;14565;48.626;8.978;2024-02-28T07:53:16;28.90;;;17.25;;
27025;SDS011;14565;48.626;8.978;2024-02-28T07:55:42;23.55;;;14.40;;
27025;SDS011;14565;48.626;8.978;2024-02-28T07:58:08;26.25;;;14.52;;
27025;SDS011;14565;48.626;8.978;2024-02-28T08:00:34;22.58;;;13.82;;
27025;SDS011;14565;48.626;8.978;2024-02-28T08:03:00;24.63;;;15.00;;
27025;SDS011;14565;48.626;8.978;2024-02-28T08:05:26;24.70;;;15.68;;
27025;SDS011;14565;48.626;8.978;2024-02-28T08:07:52;20.75;;;11.93;;
27025;SDS011;14565;48.626;8.978;2024-02-28T08:10:17;23.17;;;14.27;;
27025;SDS011;14565;48.626;8.978;2024-02-28T08:12:43;27.50;;;15.93;;
27025;SDS011;14565;48.626;8.978;2024-02-28T08:15:09;28.42;;;15.40;;
27025;SDS011;14565;48.626;8.978;2024-02-28T08:17:35;27.40;;;15.63;;
27025;SDS011;14565;48.626;8.978;2024-02-28T08:20:02;27.52;;;15.43;;
27025;SDS011;14565;48.626;8.978;2024-02-28T08:22:31;22.55;;;13.90;;
27025;SDS011;14565;48.626;8.978;2024-02-28T08:24:57;21.73;;;12.25;;
27025;SDS011;14565;48.626;8.978;2024-02-28T08:27:22;23.25;;;13.85;;
27025;SDS011;14565;48.626;8.978;2024-02-28T08:29:51;25.02;;;14.50;;
27025;SDS011;14565;48.626;8.978;2024-02-28T08:32:17;23.98;;;13.70;;
27025;SDS011;14565;48.626;8.978;2024-02-28T08:34:43;22.23;;;14.32;;
27025;SDS011;14565;48.626;8.978;2024-02-28T08:37:11;19.90;;;12.68;;
27025;SDS011;14565;48.626;8.978;2024-02-28T08:39:37;21.80;;;13.10;;
27025;SDS011;14565;48.626;8.978;2024-02-28T08:42:03;22.85;;;13.05;;
27025;SDS011;14565;48.626;8.978;2024-02-28T08:44:29;19.58;;;12.43;;
27025;SDS011;14565;48.626;8.978;2024-02-28T08:46:54;21.17;;;13.90;;
27025;SDS011;14565;48.626;8.978;2024-02-28T08:49:20;22.63;;;13.73;;
27025;SDS011;14565;48.626;8.978;2024-02-28T08:51:45;22.15;;;13.05;;
27025;SDS011;14565;48.626;8.978;2024-02-28T08:54:11;23.38;;;14.18;;
27025;SDS011;14565;48.626;8.978;2024-02-28T08:56:37;22.17;;;14.10;;
27025;SDS011;14565;48.626;8.978;2024-02-28T08:59:03;19.45;;;12.80;;
27025;SDS011;14565;48.626;8.978;2024-02-28T09:01:28;22.33;;;13.70;;
27025;SDS011;14565;48.626;8.978;2024-02-28T09:03:54;21.75;;;13.55;;
27025;SDS011;14565;48.626;8.978;2024-02-28T09:06:20;24.30;;;14.82;;
27025;SDS011;14565;48.626;8.978;2024-02-28T09:08:45;24.75;;;14.07;;
27025;SDS011;14565;48.626;8.978;2024-02-28T09:11:11;22.63;;;14.18;;
27025;SDS011;14565;48.626;8.978;2024-02-28T09:13:37;25.42;;;14.60;;
27025;SDS011;14565;48.626;8.978;2024-02-28T09:16:03;22.20;;;14.35;;
27025;SDS011;14565;48.626;8.978;2024-02-28T09:18:29;20.38;;;13.38;;
27025;SDS011;14565;48.626;8.978;2024-02-28T09:20:54;24.05;;;13.90;;
27025;SDS011;14565;48.626;8.978;2024-02-28T09:23:20;21.17;;;12.90;;
27025;SDS011;14565;48.626;8.978;2024-02-28T09:25:46;20.75;;;13.32;;
27025;SDS011;14565;48.626;8.978;2024-02-28T09:28:12;21.55;;;13.18;;
27025;SDS011;14565;48.626;8.978;2024-02-28T09:30:39;20.08;;;12.75;;
27025;SDS011;14565;48.626;8.978;2024-02-28T09:33:05;21.00;;;13.40;;
27025;SDS011;14565;48.626;8.978;2024-02-28T09:35:31;20.42;;;13.38;;
27025;SDS011;14565;48.626;8.978;2024-02-28T09:37:57;20.17;;;12.30;;
27025;SDS011;14565;48.626;8.978;2024-02-28T09:40:23;20.13;;;13.35;;
27025;SDS011;14565;48.626;8.978;2024-02-28T09:42:52;20.73;;;12.43;;
27025;SDS011;14565;48.626;8.978;2024-02-28T09:45:25;21.52;;;13.30;;
27025;SDS011;14565;48.626;8.978;2024-02-28T09:47:52;21.88;;;13.32;;
27025;SDS011;14565;48.626;8.978;2024-02-28T09:50:18;22.73;;;14.43;;
27025;SDS011;14565;48.626;8.978;2024-02-28T09:52:44;22.50;;;13.43;;
27025;SDS011;14565;48.626;8.978;2024-02-28T09:55:10;20.95;;;12.90;;
27025;SDS011;14565;48.626;8.978;2024-02-28T09:57:36;17.65;;;12.23;;
27025;SDS011;14565;48.626;8.978;2024-02-28T10:00:03;18.75;;;12.40;;
27025;SDS011;14565;48.626;8.978;2024-02-28T10:02:30;21.73;;;12.02;;
27025;SDS011;14565;48.626;8.978;2024-02-28T10:04:59;17.13;;;11.85;;
27025;SDS011;14565;48.626;8.978;2024-02-28T10:07:25;17.77;;;11.85;;
27025;SDS011;14565;48.626;8.978;2024-02-28T10:09:52;19.67;;;12.18;;
27025;SDS011;14565;48.626;8.978;2024-02-28T10:12:17;17.83;;;12.00;;
27025;SDS011;14565;48.626;8.978;2024-02-28T10:14:44;19.85;;;12.52;;
27025;SDS011;14565;48.626;8.978;2024-02-28T10:17:10;19.25;;;12.45;;
27025;SDS011;14565;48.626;8.978;2024-02-28T10:19:35;20.98;;;12.32;;
27025;SDS011;14565;48.626;8.978;2024-02-28T10:22:01;18.73;;;11.93;;
27025;SDS011;14565;48.626;8.978;2024-02-28T10:24:27;18.05;;;11.50;;
27025;SDS011;14565;48.626;8.978;2024-02-28T10:26:53;18.10;;;11.13;;
27025;SDS011;14565;48.626;8.978;2024-02-28T10:29:24;19.80;;;11.65;;
27025;SDS011;14565;48.626;8.978;2024-02-28T10:31:59;16.67;;;10.82;;
27025;SDS011;14565;48.626;8.978;2024-02-28T10:34:25;17.45;;;11.63;;
27025;SDS011;14565;48.626;8.978;2024-02-28T10:36:51;15.30;;;11.05;;
27025;SDS011;14565;48.626;8.978;2024-02-28T10:39:17;18.08;;;11.25;;
27025;SDS011;14565;48.626;8.978;2024-02-28T10:41:44;21.27;;;12.15;;
27025;SDS011;14565;48.626;8.978;2024-02-28T10:44:13;19.92;;;12.15;;
27025;SDS011;14565;48.626;8.978;2024-02-28T10:46:41;21.23;;;12.25;;
27025;SDS011;14565;48.626;8.978;2024-02-28T10:49:09;17.63;;;11.38;;
27025;SDS011;14565;48.626;8.978;2024-02-28T10:51:35;18.00;;;11.13;;
27025;SDS011;14565;48.626;8.978;2024-02-28T10:56:37;18.30;;;11.82;;
27025;SDS011;14565;48.626;8.978;2024-02-28T10:59:05;18.73;;;11.52;;
27025;SDS011;14565;48.626;8.978;2024-02-28T11:01:39;16.98;;;11.15;;
27025;SDS011;14565;48.626;8.978;2024-02-28T11:04:09;14.90;;;10.35;;
27025;SDS011;14565;48.626;8.978;2024-02-28T11:06:46;17.55;;;11.30;;
27025;SDS011;14565;48.626;8.978;2024-02-28T11:09:18;18.80;;;12.07;;
27025;SDS011;14565;48.626;8.978;2024-02-28T11:11:44;15.55;;;11.10;;
27025;SDS011;14565;48.626;8.978;2024-02-28T11:14:14;16.73;;;10.90;;
27025;SDS011;14565;48.626;8.978;2024-02-28T11:16:40;16.52;;;11.25;;
27025;SDS011;14565;48.626;8.978;2024-02-28T11:19:09;17.65;;;11.93;;
27025;SDS011;14565;48.626;8.978;2024-02-28T11:21:45;15.68;;;10.68;;
27025;SDS011;14565;48.626;8.978;2024-02-28T11:24:28;18.33;;;12.05;;
27025;SDS011;14565;48.626;8.978;2024-02-28T11:26:58;18.30;;;12.05;;
27025;SDS011;14565;48.626;8.978;2024-02-28T11:29:27;19.88;;;12.75;;
27025;SDS011;14565;48.626;8.978;2024-02-28T11:31:54;18.92;;;12.48;;
27025;SDS011;14565;48.626;8.978;2024-02-28T11:34:20;20.27;;;12.90;;
27025;SDS011;14565;48.626;8.978;2024-02-28T11:36:47;17.80;;;11.35;;
27025;SDS011;14565;48.626;8.978;2024-02-28T11:39:14;18.45;;;12.25;;
27025;SDS011;14565;48.626;8.978;2024-02-28T11:41:39;18.00;;;11.65;;
27025;SDS011;14565;48.626;8.978;2024-02-28T11:44:05;19.95;;;11.40;;
27025;SDS011;14565;48.626;8.978;2024-02-28T11:46:31;17.05;;;10.60;;
27025;SDS011;14565;48.626;8.978;2024-02-28T11:48:58;19.30;;;12.15;;
27025;SDS011;14565;48.626;8.978;2024-02-28T11:51:25;16.83;;;12.00;;
27025;SDS011;14565;48.626;8.978;2024-02-28T11:53:51;18.33;;;12.43;;
27025;SDS011;14565;48.626;8.978;2024-02-28T11:56:16;18.77;;;12.10;;
27025;SDS011;14565;48.626;8.978;2024-02-28T11:58:52;20.77;;;11.75;;
27025;SDS011;14565;48.626;8.978;2024-02-28T12:01:19;18.10;;;11.93;;
27025;SDS011;14565;48.626;8.978;2024-02-28T12:03:56;20.55;;;12.70;;
27025;SDS011;14565;48.626;8.978;2024-02-28T12:06:23;19.13;;;12.75;;
27025;SDS011;14565;48.626;8.978;2024-02-28T12:08:48;21.30;;;12.80;;
27025;SDS011;14565;48.626;8.978;2024-02-28T12:11:15;23.73;;;12.30;;
27025;SDS011;14565;48.626;8.978;2024-02-28T12:13:41;22.95;;;12.90;;
27025;SDS011;14565;48.626;8.978;2024-02-28T12:16:07;21.95;;;13.23;;
27025;SDS011;14565;48.626;8.978;2024-02-28T12:18:33;24.95;;;13.23;;
27025;SDS011;14565;48.626;8.978;2024-02-28T12:21:00;24.55;;;13.27;;
27025;SDS011;14565;48.626;8.978;2024-02-28T12:23:25;21.27;;;14.50;;
27025;SDS011;14565;48.626;8.978;2024-02-28T12:25:51;23.35;;;13.63;;
27025;SDS011;14565;48.626;8.978;2024-02-28T12:28:17;22.80;;;13.70;;
27025;SDS011;14565;48.626;8.978;2024-02-28T12:30:42;23.75;;;14.45;;
27025;SDS011;14565;48.626;8.978;2024-02-28T12:33:08;23.70;;;14.18;;
27025;SDS011;14565;48.626;8.978;2024-02-28T12:35:36;25.77;;;16.50;;
27025;SDS011;14565;48.626;8.978;2024-02-28T12:38:02;29.85;;;15.15;;
27025;SDS011;14565;48.626;8.978;2024-02-28T12:40:27;23.70;;;13.90;;
27025;SDS011;14565;48.626;8.978;2024-02-28T12:42:53;22.77;;;14.98;;
27025;SDS011;14565;48.626;8.978;2024-02-28T12:45:19;21.00;;;11.68;;
27025;SDS011;14565;48.626;8.978;2024-02-28T12:47:44;19.80;;;12.85;;
27025;SDS011;14565;48.626;8.978;2024-02-28T12:50:10;20.10;;;13.00;;
27025;SDS011;14565;48.626;8.978;2024-02-28T12:52:36;20.95;;;12.80;;
27025;SDS011;14565;48.626;8.978;2024-02-28T12:55:02;24.00;;;14.25;;
27025;SDS011;14565;48.626;8.978;2024-02-28T12:57:27;21.55;;;13.25;;
27025;SDS011;14565;48.626;8.978;2024-02-28T12:59:53;20.55;;;13.07;;
27025;SDS011;14565;48.626;8.978;2024-02-28T13:02:19;22.42;;;14.00;;
27025;SDS011;14565;48.626;8.978;2024-02-28T13:04:45;19.45;;;13.13;;
27025;SDS011;14565;48.626;8.978;2024-02-28T13:07:10;22.95;;;15.50;;
27025;SDS011;14565;48.626;8.978;2024-02-28T13:09:36;20.42;;;13.35;;
27025;SDS011;14565;48.626;8.978;2024-02-28T13:12:03;21.05;;;13.55;;
27025;SDS011;14565;48.626;8.978;2024-02-28T13:14:29;24.75;;;13.75;;
27025;SDS011;14565;48.626;8.978;2024-02-28T13:16:55;24.45;;;13.25;;
27025;SDS011;14565;48.626;8.978;2024-02-28T13:19:21;28.08;;;14.70;;
27025;SDS011;14565;48.626;8.978;2024-02-28T13:21:46;22.30;;;13.93;;
27025;SDS011;14565;48.626;8.978;2024-02-28T13:24:12;23.23;;;15.32;;
27025;SDS011;14565;48.626;8.978;2024-02-28T13:26:40;22.08;;;14.15;;
27025;SDS011;14565;48.626;8.978;2024-02-28T13:29:06;22.45;;;13.85;;
27025;SDS011;14565;48.626;8.978;2024-02-28T13:31:32;22.65;;;13.73;;
27025;SDS011;14565;48.626;8.978;2024-02-28T13:33:58;23.45;;;15.00;;
27025;SDS011;14565;48.626;8.978;2024-02-28T13:36:25;24.40;;;14.48;;
27025;SDS011;14565;48.626;8.978;2024-02-28T13:38:51;23.55;;;14.45;;
27025;SDS011;14565;48.626;8.978;2024-02-28T13:41:17;23.70;;;14.75;;
27025;SDS011;14565;48.626;8.978;2024-02-28T13:43:42;27.25;;;15.27;;
27025;SDS011;14565;48.626;8.978;2024-02-28T13:46:08;24.50;;;13.90;;
27025;SDS011;14565;48.626;8.978;2024-02-28T13:48:35;25.02;;;14.32;;
27025;SDS011;14565;48.626;8.978;2024-02-28T13:51:00;26.67;;;15.77;;
27025;SDS011;14565;48.626;8.978;2024-02-28T13:53:27;24.63;;;14.60;;
27025;SDS011;14565;48.626;8.978;2024-02-28T13:55:52;25.65;;;14.55;;
27025;SDS011;14565;48.626;8.978;2024-02-28T13:58:18;23.67;;;14.35;;
27025;SDS011;14565;48.626;8.978;2024-02-28T14:00:44;25.38;;;14.38;;
27025;SDS011;14565;48.626;8.978;2024-02-28T14:03:10;24.23;;;14.52;;
27025;SDS011;14565;48.626;8.978;2024-02-28T14:05:36;25.00;;;14.63;;
27025;SDS011;14565;48.626;8.978;2024-02-28T14:08:05;28.42;;;15.50;;
27025;SDS011;14565;48.626;8.978;2024-02-28T14:10:35;25.30;;;14.70;;
27025;SDS011;14565;48.626;8.978;2024-02-28T14:13:02;23.75;;;14.82;;
27025;SDS011;14565;48.626;8.978;2024-02-28T14:15:28;23.98;;;14.75;;
27025;SDS011;14565;48.626;8.978;2024-02-28T14:17:54;27.88;;;15.30;;
27025;SDS011;14565;48.626;8.978;2024-02-28T14:20:19;28.17;;;17.33;;